Houlton Intl Information

FAA: HUL - ICAO: KHUL

Houlton Intl (Airport) Location

State Maine
County Aroostook
City Houlton
Houlton Intl (Airport) is 2 miles east of Houlton, ME.
Latitude 46-07-28.5850N
Longitude 067-47-32.4970W
Elevation 489ft

Houlton Intl METARs

METAR KHUL 261053Z AUTO 20005KT 10SM CLR 11/06 A3027 RMK AO2 SLP250 T01060061
Altimeter 30.27"
Temperature 10.6°C (51.1°F)
Wind 200° at 5KT
Clouds Skies are clear.
Visibility 10.0mi
Time observed: 2022-05-26T10:53:00Z

Houlton Intl (Airport) Details

Status Operational
Activation April 1940
Ownership Public
Usage Public
Chart HALIFAX
ATC on-site No
Beacon schedule sunset-sunrise
Beacon color clear green

Houlton Intl (Airport) Contacts

Owner TOWN OF HOULTON
Owner address 21 WATER STREET, HOULTON, ME 04730
Owner phone 207-532-7111
Manager RICHARD L KNIGHT
Manager address 353 MOUNTFORT RD, NORTH YARMOUTH, ME 04097
Manager phone 207-846-4520

Houlton Intl Radio Frequencies

Houlton Intl (Airport) Radio Frequencies

UNICOM 122.8
Common traffic advisory frequency (CTAF) 122.8